sensor_id;sensor_type;location;lat;lon;timestamp;P1;durP1;ratioP1;P2;durP2;ratioP2
30233;SDS011;17046;52.074;4.748;2023-04-03T00:00:40;3.80;;;2.17;;
30233;SDS011;17046;52.074;4.748;2023-04-03T00:03:06;2.90;;;1.60;;
30233;SDS011;17046;52.074;4.748;2023-04-03T00:05:32;3.43;;;1.77;;
30233;SDS011;17046;52.074;4.748;2023-04-03T00:07:57;3.00;;;1.50;;
30233;SDS011;17046;52.074;4.748;2023-04-03T00:10:23;4.87;;;1.40;;
30233;SDS011;17046;52.074;4.748;2023-04-03T00:12:49;4.67;;;1.90;;
30233;SDS011;17046;52.074;4.748;2023-04-03T00:15:15;2.23;;;1.33;;
30233;SDS011;17046;52.074;4.748;2023-04-03T00:17:41;3.00;;;1.43;;
30233;SDS011;17046;52.074;4.748;2023-04-03T00:20:06;3.60;;;1.50;;
30233;SDS011;17046;52.074;4.748;2023-04-03T00:22:33;2.30;;;1.60;;
30233;SDS011;17046;52.074;4.748;2023-04-03T00:24:58;2.73;;;1.40;;
30233;SDS011;17046;52.074;4.748;2023-04-03T00:27:24;3.70;;;1.50;;
30233;SDS011;17046;52.074;4.748;2023-04-03T00:29:49;4.00;;;1.70;;
30233;SDS011;17046;52.074;4.748;2023-04-03T00:32:15;4.27;;;1.40;;
30233;SDS011;17046;52.074;4.748;2023-04-03T00:34:40;2.37;;;1.50;;
30233;SDS011;17046;52.074;4.748;2023-04-03T00:37:06;3.87;;;1.60;;
30233;SDS011;17046;52.074;4.748;2023-04-03T00:39:31;2.57;;;1.43;;
30233;SDS011;17046;52.074;4.748;2023-04-03T00:41:57;2.67;;;1.40;;
30233;SDS011;17046;52.074;4.748;2023-04-03T00:46:57;2.83;;;1.50;;
30233;SDS011;17046;52.074;4.748;2023-04-03T00:49:23;2.50;;;1.60;;
30233;SDS011;17046;52.074;4.748;2023-04-03T00:51:49;4.73;;;1.60;;
30233;SDS011;17046;52.074;4.748;2023-04-03T00:54:15;5.17;;;1.57;;
30233;SDS011;17046;52.074;4.748;2023-04-03T00:56:41;4.87;;;1.73;;
30233;SDS011;17046;52.074;4.748;2023-04-03T00:59:10;2.93;;;1.30;;
30233;SDS011;17046;52.074;4.748;2023-04-03T01:01:40;3.00;;;1.73;;
30233;SDS011;17046;52.074;4.748;2023-04-03T01:04:24;3.30;;;1.57;;
30233;SDS011;17046;52.074;4.748;2023-04-03T01:06:56;2.77;;;1.50;;
30233;SDS011;17046;52.074;4.748;2023-04-03T01:09:25;2.27;;;1.40;;
30233;SDS011;17046;52.074;4.748;2023-04-03T01:11:51;2.83;;;1.50;;
30233;SDS011;17046;52.074;4.748;2023-04-03T01:14:17;4.13;;;1.50;;
30233;SDS011;17046;52.074;4.748;2023-04-03T01:16:51;2.77;;;1.40;;
30233;SDS011;17046;52.074;4.748;2023-04-03T01:19:19;3.77;;;1.53;;
30233;SDS011;17046;52.074;4.748;2023-04-03T01:24:25;2.83;;;1.43;;
30233;SDS011;17046;52.074;4.748;2023-04-03T01:27:00;2.20;;;1.40;;
30233;SDS011;17046;52.074;4.748;2023-04-03T01:29:29;2.13;;;1.37;;
30233;SDS011;17046;52.074;4.748;2023-04-03T01:31:58;3.67;;;1.47;;
30233;SDS011;17046;52.074;4.748;2023-04-03T01:34:26;2.63;;;1.40;;
30233;SDS011;17046;52.074;4.748;2023-04-03T01:36:52;4.40;;;1.50;;
30233;SDS011;17046;52.074;4.748;2023-04-03T01:39:18;4.47;;;1.50;;
30233;SDS011;17046;52.074;4.748;2023-04-03T01:41:44;3.00;;;1.47;;
30233;SDS011;17046;52.074;4.748;2023-04-03T01:44:10;2.77;;;1.50;;
30233;SDS011;17046;52.074;4.748;2023-04-03T01:46:36;5.37;;;1.80;;
30233;SDS011;17046;52.074;4.748;2023-04-03T01:49:02;5.37;;;2.20;;
30233;SDS011;17046;52.074;4.748;2023-04-03T01:51:28;3.23;;;1.70;;
30233;SDS011;17046;52.074;4.748;2023-04-03T01:53:54;4.37;;;1.73;;
30233;SDS011;17046;52.074;4.748;2023-04-03T01:56:20;5.93;;;1.60;;
30233;SDS011;17046;52.074;4.748;2023-04-03T01:58:46;4.03;;;1.63;;
30233;SDS011;17046;52.074;4.748;2023-04-03T02:01:11;4.20;;;1.67;;
30233;SDS011;17046;52.074;4.748;2023-04-03T02:03:37;4.27;;;1.73;;
30233;SDS011;17046;52.074;4.748;2023-04-03T02:06:03;5.07;;;1.93;;
30233;SDS011;17046;52.074;4.748;2023-04-03T02:08:29;3.93;;;1.70;;
30233;SDS011;17046;52.074;4.748;2023-04-03T02:10:55;2.70;;;1.47;;
30233;SDS011;17046;52.074;4.748;2023-04-03T02:13:20;3.70;;;1.70;;
30233;SDS011;17046;52.074;4.748;2023-04-03T02:15:46;4.97;;;1.63;;
30233;SDS011;17046;52.074;4.748;2023-04-03T02:18:12;5.70;;;1.67;;
30233;SDS011;17046;52.074;4.748;2023-04-03T02:20:38;3.77;;;2.00;;
30233;SDS011;17046;52.074;4.748;2023-04-03T02:23:04;3.97;;;1.90;;
30233;SDS011;17046;52.074;4.748;2023-04-03T02:25:30;2.83;;;1.63;;
30233;SDS011;17046;52.074;4.748;2023-04-03T02:27:56;2.80;;;1.90;;
30233;SDS011;17046;52.074;4.748;2023-04-03T02:30:22;5.07;;;1.67;;
30233;SDS011;17046;52.074;4.748;2023-04-03T02:32:48;3.67;;;1.80;;
30233;SDS011;17046;52.074;4.748;2023-04-03T02:35:14;5.03;;;1.73;;
30233;SDS011;17046;52.074;4.748;2023-04-03T02:37:40;4.53;;;1.70;;
30233;SDS011;17046;52.074;4.748;2023-04-03T02:40:06;4.90;;;2.23;;
30233;SDS011;17046;52.074;4.748;2023-04-03T02:42:32;2.57;;;1.40;;
30233;SDS011;17046;52.074;4.748;2023-04-03T02:44:58;5.73;;;1.90;;
30233;SDS011;17046;52.074;4.748;2023-04-03T02:47:25;3.37;;;1.77;;
30233;SDS011;17046;52.074;4.748;2023-04-03T02:49:52;3.07;;;1.57;;
30233;SDS011;17046;52.074;4.748;2023-04-03T02:52:18;2.10;;;1.60;;
30233;SDS011;17046;52.074;4.748;2023-04-03T02:54:43;2.90;;;1.73;;
30233;SDS011;17046;52.074;4.748;2023-04-03T02:57:09;4.90;;;1.70;;
30233;SDS011;17046;52.074;4.748;2023-04-03T02:59:37;4.60;;;1.60;;
30233;SDS011;17046;52.074;4.748;2023-04-03T03:02:08;2.87;;;1.57;;
30233;SDS011;17046;52.074;4.748;2023-04-03T03:04:34;5.07;;;1.77;;
30233;SDS011;17046;52.074;4.748;2023-04-03T03:07:00;5.07;;;1.93;;
30233;SDS011;17046;52.074;4.748;2023-04-03T03:09:26;2.43;;;1.57;;
30233;SDS011;17046;52.074;4.748;2023-04-03T03:11:52;4.80;;;1.83;;
30233;SDS011;17046;52.074;4.748;2023-04-03T03:14:18;5.23;;;1.80;;
30233;SDS011;17046;52.074;4.748;2023-04-03T03:16:43;4.23;;;2.00;;
30233;SDS011;17046;52.074;4.748;2023-04-03T03:19:09;4.93;;;1.87;;
30233;SDS011;17046;52.074;4.748;2023-04-03T03:21:35;4.90;;;2.40;;
30233;SDS011;17046;52.074;4.748;2023-04-03T03:24:01;4.47;;;2.10;;
30233;SDS011;17046;52.074;4.748;2023-04-03T03:26:27;3.17;;;1.80;;
30233;SDS011;17046;52.074;4.748;2023-04-03T03:28:53;4.97;;;1.80;;
30233;SDS011;17046;52.074;4.748;2023-04-03T03:31:19;4.77;;;2.27;;
30233;SDS011;17046;52.074;4.748;2023-04-03T03:33:45;3.80;;;1.70;;
30233;SDS011;17046;52.074;4.748;2023-04-03T03:36:11;4.03;;;2.07;;
30233;SDS011;17046;52.074;4.748;2023-04-03T03:38:37;4.50;;;1.80;;
30233;SDS011;17046;52.074;4.748;2023-04-03T03:41:03;3.87;;;2.00;;
30233;SDS011;17046;52.074;4.748;2023-04-03T03:43:29;4.47;;;2.03;;
30233;SDS011;17046;52.074;4.748;2023-04-03T03:45:55;4.33;;;2.30;;
30233;SDS011;17046;52.074;4.748;2023-04-03T03:48:21;4.30;;;2.17;;
30233;SDS011;17046;52.074;4.748;2023-04-03T03:50:48;6.40;;;2.40;;
30233;SDS011;17046;52.074;4.748;2023-04-03T03:53:14;4.60;;;2.10;;
30233;SDS011;17046;52.074;4.748;2023-04-03T03:55:40;3.93;;;1.73;;
30233;SDS011;17046;52.074;4.748;2023-04-03T03:58:06;4.93;;;1.90;;
30233;SDS011;17046;52.074;4.748;2023-04-03T04:00:31;4.83;;;1.97;;
30233;SDS011;17046;52.074;4.748;2023-04-03T04:02:57;4.23;;;1.70;;
30233;SDS011;17046;52.074;4.748;2023-04-03T04:05:22;4.90;;;1.73;;
30233;SDS011;17046;52.074;4.748;2023-04-03T04:07:48;4.63;;;2.20;;
30233;SDS011;17046;52.074;4.748;2023-04-03T04:10:14;4.07;;;1.90;;
30233;SDS011;17046;52.074;4.748;2023-04-03T04:12:40;5.33;;;2.30;;
30233;SDS011;17046;52.074;4.748;2023-04-03T04:15:06;5.43;;;2.40;;
30233;SDS011;17046;52.074;4.748;2023-04-03T04:17:32;7.50;;;2.13;;
30233;SDS011;17046;52.074;4.748;2023-04-03T04:20:00;5.47;;;2.27;;
30233;SDS011;17046;52.074;4.748;2023-04-03T04:22:26;5.80;;;2.40;;
30233;SDS011;17046;52.074;4.748;2023-04-03T04:24:51;6.83;;;2.47;;
30233;SDS011;17046;52.074;4.748;2023-04-03T04:27:17;5.63;;;2.10;;
30233;SDS011;17046;52.074;4.748;2023-04-03T04:29:43;6.97;;;2.50;;
30233;SDS011;17046;52.074;4.748;2023-04-03T04:32:08;4.47;;;2.20;;
30233;SDS011;17046;52.074;4.748;2023-04-03T04:34:35;2.70;;;1.93;;
30233;SDS011;17046;52.074;4.748;2023-04-03T04:37:00;4.40;;;2.40;;
30233;SDS011;17046;52.074;4.748;2023-04-03T04:39:26;5.77;;;2.37;;
30233;SDS011;17046;52.074;4.748;2023-04-03T04:41:52;5.70;;;2.63;;
30233;SDS011;17046;52.074;4.748;2023-04-03T04:44:18;3.77;;;2.27;;
30233;SDS011;17046;52.074;4.748;2023-04-03T04:46:45;6.80;;;2.60;;
30233;SDS011;17046;52.074;4.748;2023-04-03T04:49:11;4.77;;;2.37;;
30233;SDS011;17046;52.074;4.748;2023-04-03T04:51:36;8.07;;;2.60;;
30233;SDS011;17046;52.074;4.748;2023-04-03T04:54:02;6.17;;;2.53;;
30233;SDS011;17046;52.074;4.748;2023-04-03T04:56:27;4.80;;;2.63;;
30233;SDS011;17046;52.074;4.748;2023-04-03T04:58:53;8.50;;;2.87;;
30233;SDS011;17046;52.074;4.748;2023-04-03T05:01:19;6.43;;;2.73;;
30233;SDS011;17046;52.074;4.748;2023-04-03T05:03:44;5.27;;;2.60;;
30233;SDS011;17046;52.074;4.748;2023-04-03T05:06:10;3.97;;;2.43;;
30233;SDS011;17046;52.074;4.748;2023-04-03T05:08:36;8.13;;;2.50;;
30233;SDS011;17046;52.074;4.748;2023-04-03T05:11:02;7.33;;;2.50;;
30233;SDS011;17046;52.074;4.748;2023-04-03T05:13:28;5.00;;;2.73;;
30233;SDS011;17046;52.074;4.748;2023-04-03T05:15:54;5.37;;;2.20;;
30233;SDS011;17046;52.074;4.748;2023-04-03T05:18:20;7.90;;;2.27;;
30233;SDS011;17046;52.074;4.748;2023-04-03T05:20:48;5.93;;;2.13;;
30233;SDS011;17046;52.074;4.748;2023-04-03T05:23:15;5.63;;;3.27;;
30233;SDS011;17046;52.074;4.748;2023-04-03T05:25:41;7.73;;;2.73;;
30233;SDS011;17046;52.074;4.748;2023-04-03T05:28:08;7.03;;;2.60;;
30233;SDS011;17046;52.074;4.748;2023-04-03T05:30:35;3.30;;;2.23;;
30233;SDS011;17046;52.074;4.748;2023-04-03T05:33:01;7.10;;;2.90;;
30233;SDS011;17046;52.074;4.748;2023-04-03T05:35:27;9.37;;;2.80;;
30233;SDS011;17046;52.074;4.748;2023-04-03T05:37:52;8.60;;;3.03;;
30233;SDS011;17046;52.074;4.748;2023-04-03T05:40:18;5.90;;;3.03;;
30233;SDS011;17046;52.074;4.748;2023-04-03T05:42:44;6.63;;;2.50;;
30233;SDS011;17046;52.074;4.748;2023-04-03T05:45:09;7.23;;;2.80;;
30233;SDS011;17046;52.074;4.748;2023-04-03T05:47:35;7.30;;;3.10;;
30233;SDS011;17046;52.074;4.748;2023-04-03T05:50:02;7.10;;;2.87;;
30233;SDS011;17046;52.074;4.748;2023-04-03T05:52:29;8.37;;;3.03;;
30233;SDS011;17046;52.074;4.748;2023-04-03T05:54:57;6.13;;;3.03;;
30233;SDS011;17046;52.074;4.748;2023-04-03T05:57:22;6.33;;;2.80;;
30233;SDS011;17046;52.074;4.748;2023-04-03T05:59:49;6.17;;;2.83;;
30233;SDS011;17046;52.074;4.748;2023-04-03T06:02:16;4.63;;;2.67;;
30233;SDS011;17046;52.074;4.748;2023-04-03T06:04:44;3.67;;;2.60;;
30233;SDS011;17046;52.074;4.748;2023-04-03T06:07:19;5.53;;;2.93;;
30233;SDS011;17046;52.074;4.748;2023-04-03T06:09:47;6.53;;;2.97;;
30233;SDS011;17046;52.074;4.748;2023-04-03T06:12:14;7.67;;;3.00;;
30233;SDS011;17046;52.074;4.748;2023-04-03T06:14:40;7.93;;;2.87;;
30233;SDS011;17046;52.074;4.748;2023-04-03T06:17:06;7.63;;;2.87;;
30233;SDS011;17046;52.074;4.748;2023-04-03T06:19:34;5.90;;;3.03;;
30233;SDS011;17046;52.074;4.748;2023-04-03T06:22:00;5.20;;;3.10;;
30233;SDS011;17046;52.074;4.748;2023-04-03T06:24:26;10.07;;;3.00;;
30233;SDS011;17046;52.074;4.748;2023-04-03T06:26:51;9.27;;;3.10;;
30233;SDS011;17046;52.074;4.748;2023-04-03T06:29:18;6.07;;;2.87;;
30233;SDS011;17046;52.074;4.748;2023-04-03T06:31:44;4.83;;;2.77;;
30233;SDS011;17046;52.074;4.748;2023-04-03T06:34:10;7.47;;;2.77;;
30233;SDS011;17046;52.074;4.748;2023-04-03T06:36:36;11.80;;;3.27;;
30233;SDS011;17046;52.074;4.748;2023-04-03T06:39:03;6.60;;;2.67;;
30233;SDS011;17046;52.074;4.748;2023-04-03T06:41:30;8.53;;;3.10;;
30233;SDS011;17046;52.074;4.748;2023-04-03T06:43:56;6.83;;;2.40;;
30233;SDS011;17046;52.074;4.748;2023-04-03T06:46:23;5.60;;;2.70;;
30233;SDS011;17046;52.074;4.748;2023-04-03T06:48:50;9.37;;;3.00;;
30233;SDS011;17046;52.074;4.748;2023-04-03T06:51:27;5.87;;;2.23;;
30233;SDS011;17046;52.074;4.748;2023-04-03T06:53:54;6.23;;;2.20;;
30233;SDS011;17046;52.074;4.748;2023-04-03T06:56:22;7.03;;;2.70;;
30233;SDS011;17046;52.074;4.748;2023-04-03T06:58:48;7.53;;;2.60;;
30233;SDS011;17046;52.074;4.748;2023-04-03T07:01:16;4.83;;;1.97;;
30233;SDS011;17046;52.074;4.748;2023-04-03T07:03:44;8.00;;;2.27;;
30233;SDS011;17046;52.074;4.748;2023-04-03T07:06:11;5.63;;;1.57;;
30233;SDS011;17046;52.074;4.748;2023-04-03T07:08:38;9.33;;;2.27;;
30233;SDS011;17046;52.074;4.748;2023-04-03T07:11:04;7.37;;;2.17;;
30233;SDS011;17046;52.074;4.748;2023-04-03T07:13:31;7.17;;;2.23;;
30233;SDS011;17046;52.074;4.748;2023-04-03T07:15:57;5.23;;;1.80;;
30233;SDS011;17046;52.074;4.748;2023-04-03T07:18:23;4.80;;;2.10;;
30233;SDS011;17046;52.074;4.748;2023-04-03T07:20:48;5.20;;;2.00;;
30233;SDS011;17046;52.074;4.748;2023-04-03T07:23:14;3.83;;;1.60;;
30233;SDS011;17046;52.074;4.748;2023-04-03T07:25:43;5.47;;;1.63;;
30233;SDS011;17046;52.074;4.748;2023-04-03T07:28:10;4.20;;;1.60;;
30233;SDS011;17046;52.074;4.748;2023-04-03T07:30:46;6.13;;;2.07;;
30233;SDS011;17046;52.074;4.748;2023-04-03T07:33:17;4.20;;;1.60;;
30233;SDS011;17046;52.074;4.748;2023-04-03T07:35:43;4.83;;;1.67;;
30233;SDS011;17046;52.074;4.748;2023-04-03T07:38:09;9.33;;;2.30;;
30233;SDS011;17046;52.074;4.748;2023-04-03T07:40:35;4.47;;;1.60;;
30233;SDS011;17046;52.074;4.748;2023-04-03T07:43:02;6.33;;;1.80;;
30233;SDS011;17046;52.074;4.748;2023-04-03T07:45:28;5.23;;;1.70;;
30233;SDS011;17046;52.074;4.748;2023-04-03T07:47:54;5.50;;;1.80;;
30233;SDS011;17046;52.074;4.748;2023-04-03T07:50:21;5.23;;;1.90;;
30233;SDS011;17046;52.074;4.748;2023-04-03T07:52:47;4.57;;;1.83;;
30233;SDS011;17046;52.074;4.748;2023-04-03T07:55:13;3.57;;;1.50;;
30233;SDS011;17046;52.074;4.748;2023-04-03T07:57:39;5.40;;;2.17;;
30233;SDS011;17046;52.074;4.748;2023-04-03T08:00:06;5.70;;;2.03;;
30233;SDS011;17046;52.074;4.748;2023-04-03T08:02:32;6.77;;;1.90;;
30233;SDS011;17046;52.074;4.748;2023-04-03T08:04:58;7.67;;;1.87;;
30233;SDS011;17046;52.074;4.748;2023-04-03T08:07:24;6.07;;;1.90;;
30233;SDS011;17046;52.074;4.748;2023-04-03T08:09:50;5.80;;;1.93;;
30233;SDS011;17046;52.074;4.748;2023-04-03T08:12:15;5.73;;;2.10;;
30233;SDS011;17046;52.074;4.748;2023-04-03T08:14:41;8.13;;;2.27;;
30233;SDS011;17046;52.074;4.748;2023-04-03T08:17:07;4.77;;;1.70;;
30233;SDS011;17046;52.074;4.748;2023-04-03T08:19:36;5.30;;;1.73;;
30233;SDS011;17046;52.074;4.748;2023-04-03T08:22:02;6.67;;;2.40;;
30233;SDS011;17046;52.074;4.748;2023-04-03T08:24:29;7.00;;;2.10;;
30233;SDS011;17046;52.074;4.748;2023-04-03T08:26:56;3.90;;;1.80;;
30233;SDS011;17046;52.074;4.748;2023-04-03T08:29:21;5.33;;;1.73;;
30233;SDS011;17046;52.074;4.748;2023-04-03T08:31:47;5.33;;;1.70;;
30233;SDS011;17046;52.074;4.748;2023-04-03T08:34:14;4.63;;;1.70;;
30233;SDS011;17046;52.074;4.748;2023-04-03T08:36:40;5.83;;;1.70;;
30233;SDS011;17046;52.074;4.748;2023-04-03T08:39:06;6.70;;;1.63;;
30233;SDS011;17046;52.074;4.748;2023-04-03T08:46:51;3.43;;;1.40;;
30233;SDS011;17046;52.074;4.748;2023-04-03T08:49:42;3.03;;;1.27;;
30233;SDS011;17046;52.074;4.748;2023-04-03T08:52:36;4.57;;;1.10;;
30233;SDS011;17046;52.074;4.748;2023-04-03T08:55:07;1.80;;;0.90;;
30233;SDS011;17046;52.074;4.748;2023-04-03T08:57:44;3.87;;;1.00;;
30233;SDS011;17046;52.074;4.748;2023-04-03T09:05:13;1.33;;;0.70;;
30233;SDS011;17046;52.074;4.748;2023-04-03T09:07:50;2.20;;;0.93;;
30233;SDS011;17046;52.074;4.748;2023-04-03T09:10:23;2.00;;;1.10;;
30233;SDS011;17046;52.074;4.748;2023-04-03T09:12:58;4.57;;;1.10;;
30233;SDS011;17046;52.074;4.748;2023-04-03T09:15:29;2.73;;;0.53;;
30233;SDS011;17046;52.074;4.748;2023-04-03T09:20:56;1.90;;;0.80;;
30233;SDS011;17046;52.074;4.748;2023-04-03T09:23:42;4.27;;;0.87;;
30233;SDS011;17046;52.074;4.748;2023-04-03T09:26:25;2.97;;;0.70;;
30233;SDS011;17046;52.074;4.748;2023-04-03T09:28:58;1.73;;;0.60;;
30233;SDS011;17046;52.074;4.748;2023-04-03T09:31:31;2.43;;;0.70;;
30233;SDS011;17046;52.074;4.748;2023-04-03T09:34:19;2.80;;;0.70;;
30233;SDS011;17046;52.074;4.748;2023-04-03T09:36:55;5.40;;;0.70;;
30233;SDS011;17046;52.074;4.748;2023-04-03T09:39:29;2.73;;;0.70;;
30233;SDS011;17046;52.074;4.748;2023-04-03T09:42:05;1.77;;;0.70;;
30233;SDS011;17046;52.074;4.748;2023-04-03T09:44:40;3.83;;;0.80;;
30233;SDS011;17046;52.074;4.748;2023-04-03T09:47:26;1.63;;;0.50;;
30233;SDS011;17046;52.074;4.748;2023-04-03T09:50:08;1.37;;;0.73;;
30233;SDS011;17046;52.074;4.748;2023-04-03T09:52:38;0.77;;;0.60;;
30233;SDS011;17046;52.074;4.748;2023-04-03T09:55:23;2.17;;;0.70;;
30233;SDS011;17046;52.074;4.748;2023-04-03T09:57:55;2.77;;;0.80;;
30233;SDS011;17046;52.074;4.748;2023-04-03T10:02:53;3.40;;;0.67;;
30233;SDS011;17046;52.074;4.748;2023-04-03T10:08:09;1.63;;;0.50;;
30233;SDS011;17046;52.074;4.748;2023-04-03T10:10:38;2.97;;;0.60;;
30233;SDS011;17046;52.074;4.748;2023-04-03T10:13:17;2.57;;;0.70;;
30233;SDS011;17046;52.074;4.748;2023-04-03T10:15:48;1.53;;;0.63;;
30233;SDS011;17046;52.074;4.748;2023-04-03T10:20:47;1.53;;;0.50;;
30233;SDS011;17046;52.074;4.748;2023-04-03T10:23:21;2.83;;;0.60;;
30233;SDS011;17046;52.074;4.748;2023-04-03T10:28:56;1.80;;;0.90;;
30233;SDS011;17046;52.074;4.748;2023-04-03T10:34:39;0.67;;;0.50;;
30233;SDS011;17046;52.074;4.748;2023-04-03T10:37:25;2.50;;;0.70;;
30233;SDS011;17046;52.074;4.748;2023-04-03T10:39:58;2.40;;;0.50;;
30233;SDS011;17046;52.074;4.748;2023-04-03T10:45:19;1.83;;;0.70;;
30233;SDS011;17046;52.074;4.748;2023-04-03T10:50:47;1.53;;;0.63;;
30233;SDS011;17046;52.074;4.748;2023-04-03T10:58:44;2.07;;;0.70;;
30233;SDS011;17046;52.074;4.748;2023-04-03T11:01:16;3.23;;;0.40;;
30233;SDS011;17046;52.074;4.748;2023-04-03T11:03:45;0.90;;;0.57;;
30233;SDS011;17046;52.074;4.748;2023-04-03T11:06:15;1.50;;;0.60;;
30233;SDS011;17046;52.074;4.748;2023-04-03T11:08:46;0.40;;;0.30;;
30233;SDS011;17046;52.074;4.748;2023-04-03T11:11:40;2.10;;;0.70;;
30233;SDS011;17046;52.074;4.748;2023-04-03T11:16:59;2.37;;;0.53;;
30233;SDS011;17046;52.074;4.748;2023-04-03T11:19:31;1.10;;;0.30;;
30233;SDS011;17046;52.074;4.748;2023-04-03T11:22:06;1.90;;;0.60;;
30233;SDS011;17046;52.074;4.748;2023-04-03T11:24:46;1.67;;;0.40;;
30233;SDS011;17046;52.074;4.748;2023-04-03T11:27:41;1.27;;;0.57;;
30233;SDS011;17046;52.074;4.748;2023-04-03T11:30:31;0.40;;;0.33;;
30233;SDS011;17046;52.074;4.748;2023-04-03T11:36:10;1.03;;;0.40;;
30233;SDS011;17046;52.074;4.748;2023-04-03T11:38:44;0.87;;;0.40;;
30233;SDS011;17046;52.074;4.748;2023-04-03T11:41:12;1.70;;;0.60;;
30233;SDS011;17046;52.074;4.748;2023-04-03T11:43:42;1.33;;;0.40;;
30233;SDS011;17046;52.074;4.748;2023-04-03T11:46:22;1.23;;;0.40;;
30233;SDS011;17046;52.074;4.748;2023-04-03T11:48:49;0.73;;;0.50;;
30233;SDS011;17046;52.074;4.748;2023-04-03T11:53:52;0.67;;;0.30;;
30233;SDS011;17046;52.074;4.748;2023-04-03T11:59:26;2.07;;;0.60;;
30233;SDS011;17046;52.074;4.748;2023-04-03T12:04:21;0.53;;;0.33;;
30233;SDS011;17046;52.074;4.748;2023-04-03T12:07:02;0.93;;;0.40;;
30233;SDS011;17046;52.074;4.748;2023-04-03T12:12:27;1.97;;;0.53;;
30233;SDS011;17046;52.074;4.748;2023-04-03T12:14:55;2.07;;;0.50;;
30233;SDS011;17046;52.074;4.748;2023-04-03T12:17:25;0.53;;;0.30;;
30233;SDS011;17046;52.074;4.748;2023-04-03T12:19:52;2.50;;;0.50;;
30233;SDS011;17046;52.074;4.748;2023-04-03T12:22:18;1.03;;;0.50;;
30233;SDS011;17046;52.074;4.748;2023-04-03T12:24:47;1.07;;;0.70;;
30233;SDS011;17046;52.074;4.748;2023-04-03T12:29:55;2.03;;;0.80;;
30233;SDS011;17046;52.074;4.748;2023-04-03T12:45:26;1.37;;;0.50;;
30233;SDS011;17046;52.074;4.748;2023-04-03T12:47:53;1.90;;;0.63;;
30233;SDS011;17046;52.074;4.748;2023-04-03T12:50:24;1.33;;;0.53;;
30233;SDS011;17046;52.074;4.748;2023-04-03T12:55:42;2.10;;;0.60;;
30233;SDS011;17046;52.074;4.748;2023-04-03T12:58:14;1.57;;;0.63;;
30233;SDS011;17046;52.074;4.748;2023-04-03T13:01:12;2.80;;;0.67;;
30233;SDS011;17046;52.074;4.748;2023-04-03T13:03:43;1.60;;;0.63;;
30233;SDS011;17046;52.074;4.748;2023-04-03T13:06:12;0.77;;;0.60;;
30233;SDS011;17046;52.074;4.748;2023-04-03T13:08:56;2.83;;;0.77;;
30233;SDS011;17046;52.074;4.748;2023-04-03T13:11:24;1.47;;;0.63;;
30233;SDS011;17046;52.074;4.748;2023-04-03T13:16:29;2.23;;;0.60;;
30233;SDS011;17046;52.074;4.748;2023-04-03T13:18:56;0.77;;;0.70;;
30233;SDS011;17046;52.074;4.748;2023-04-03T13:21:28;4.27;;;0.90;;
30233;SDS011;17046;52.074;4.748;2023-04-03T13:23:59;3.27;;;0.83;;
30233;SDS011;17046;52.074;4.748;2023-04-03T13:26:29;2.07;;;0.87;;
30233;SDS011;17046;52.074;4.748;2023-04-03T13:28:57;1.87;;;0.50;;
30233;SDS011;17046;52.074;4.748;2023-04-03T13:31:29;0.47;;;0.40;;
30233;SDS011;17046;52.074;4.748;2023-04-03T13:36:45;2.03;;;0.80;;
30233;SDS011;17046;52.074;4.748;2023-04-03T13:41:44;2.30;;;0.73;;
30233;SDS011;17046;52.074;4.748;2023-04-03T13:46:46;4.60;;;0.73;;
30233;SDS011;17046;52.074;4.748;2023-04-03T13:49:40;2.97;;;0.93;;
30233;SDS011;17046;52.074;4.748;2023-04-03T13:52:32;1.40;;;0.73;;
30233;SDS011;17046;52.074;4.748;2023-04-03T13:55:29;3.90;;;0.87;;
30233;SDS011;17046;52.074;4.748;2023-04-03T13:58:01;1.90;;;0.87;;
30233;SDS011;17046;52.074;4.748;2023-04-03T14:00:35;1.77;;;0.87;;
30233;SDS011;17046;52.074;4.748;2023-04-03T14:03:02;1.10;;;0.70;;
30233;SDS011;17046;52.074;4.748;2023-04-03T14:05:29;1.80;;;0.90;;
30233;SDS011;17046;52.074;4.748;2023-04-03T14:07:54;2.73;;;1.03;;
30233;SDS011;17046;52.074;4.748;2023-04-03T14:10:20;2.70;;;0.87;;
30233;SDS011;17046;52.074;4.748;2023-04-03T14:12:46;3.10;;;0.80;;
30233;SDS011;17046;52.074;4.748;2023-04-03T14:15:45;3.03;;;0.97;;
30233;SDS011;17046;52.074;4.748;2023-04-03T14:18:04;2.60;;;0.63;;
30233;SDS011;17046;52.074;4.748;2023-04-03T14:20:30;2.50;;;0.60;;
30233;SDS011;17046;52.074;4.748;2023-04-03T14:22:55;1.37;;;0.80;;
30233;SDS011;17046;52.074;4.748;2023-04-03T14:25:22;3.00;;;1.00;;
30233;SDS011;17046;52.074;4.748;2023-04-03T14:27:49;2.17;;;0.90;;
30233;SDS011;17046;52.074;4.748;2023-04-03T14:30:26;3.87;;;1.07;;
30233;SDS011;17046;52.074;4.748;2023-04-03T14:32:56;2.90;;;1.00;;
30233;SDS011;17046;52.074;4.748;2023-04-03T14:35:22;3.47;;;1.17;;
30233;SDS011;17046;52.074;4.748;2023-04-03T14:37:49;1.50;;;0.80;;
30233;SDS011;17046;52.074;4.748;2023-04-03T14:40:17;1.37;;;0.77;;
30233;SDS011;17046;52.074;4.748;2023-04-03T14:42:46;4.00;;;1.53;;
30233;SDS011;17046;52.074;4.748;2023-04-03T14:45:13;4.00;;;0.80;;
30233;SDS011;17046;52.074;4.748;2023-04-03T14:47:44;3.40;;;0.93;;
30233;SDS011;17046;52.074;4.748;2023-04-03T14:50:20;2.70;;;0.77;;
30233;SDS011;17046;52.074;4.748;2023-04-03T14:52:49;2.33;;;0.80;;
30233;SDS011;17046;52.074;4.748;2023-04-03T14:55:17;1.53;;;0.87;;
30233;SDS011;17046;52.074;4.748;2023-04-03T14:57:44;1.00;;;0.73;;
30233;SDS011;17046;52.074;4.748;2023-04-03T15:00:14;2.17;;;0.70;;
30233;SDS011;17046;52.074;4.748;2023-04-03T15:02:43;2.67;;;1.03;;
30233;SDS011;17046;52.074;4.748;2023-04-03T15:05:09;1.47;;;0.70;;
30233;SDS011;17046;52.074;4.748;2023-04-03T15:07:42;1.70;;;0.73;;
30233;SDS011;17046;52.074;4.748;2023-04-03T15:10:16;2.30;;;1.10;;
30233;SDS011;17046;52.074;4.748;2023-04-03T15:12:44;5.20;;;1.10;;
30233;SDS011;17046;52.074;4.748;2023-04-03T15:15:10;3.70;;;1.27;;
30233;SDS011;17046;52.074;4.748;2023-04-03T15:17:37;2.20;;;1.00;;
30233;SDS011;17046;52.074;4.748;2023-04-03T15:20:03;4.57;;;1.23;;
30233;SDS011;17046;52.074;4.748;2023-04-03T15:22:36;2.53;;;1.33;;
30233;SDS011;17046;52.074;4.748;2023-04-03T15:25:01;4.73;;;1.00;;
30233;SDS011;17046;52.074;4.748;2023-04-03T15:27:27;2.37;;;1.10;;
30233;SDS011;17046;52.074;4.748;2023-04-03T15:29:53;3.47;;;1.13;;
30233;SDS011;17046;52.074;4.748;2023-04-03T15:32:19;3.63;;;0.90;;
30233;SDS011;17046;52.074;4.748;2023-04-03T15:34:45;2.97;;;1.00;;
30233;SDS011;17046;52.074;4.748;2023-04-03T15:37:10;3.50;;;1.13;;
30233;SDS011;17046;52.074;4.748;2023-04-03T15:39:36;4.03;;;1.07;;
30233;SDS011;17046;52.074;4.748;2023-04-03T15:42:01;2.67;;;1.20;;
30233;SDS011;17046;52.074;4.748;2023-04-03T15:44:31;1.87;;;1.00;;
30233;SDS011;17046;52.074;4.748;2023-04-03T15:46:58;2.43;;;1.00;;
30233;SDS011;17046;52.074;4.748;2023-04-03T15:49:24;3.77;;;0.90;;
30233;SDS011;17046;52.074;4.748;2023-04-03T15:51:51;2.77;;;1.20;;
30233;SDS011;17046;52.074;4.748;2023-04-03T15:54:16;1.73;;;1.00;;
30233;SDS011;17046;52.074;4.748;2023-04-03T15:56:42;2.13;;;0.90;;
30233;SDS011;17046;52.074;4.748;2023-04-03T15:59:08;3.33;;;1.23;;
30233;SDS011;17046;52.074;4.748;2023-04-03T16:01:34;3.30;;;1.10;;
30233;SDS011;17046;52.074;4.748;2023-04-03T16:04:01;3.37;;;1.47;;
30233;SDS011;17046;52.074;4.748;2023-04-03T16:06:26;3.13;;;1.00;;
30233;SDS011;17046;52.074;4.748;2023-04-03T16:08:54;3.23;;;0.87;;
30233;SDS011;17046;52.074;4.748;2023-04-03T16:11:22;2.90;;;1.07;;
30233;SDS011;17046;52.074;4.748;2023-04-03T16:13:50;2.83;;;1.10;;
30233;SDS011;17046;52.074;4.748;2023-04-03T16:16:15;2.50;;;1.10;;
30233;SDS011;17046;52.074;4.748;2023-04-03T16:18:41;3.73;;;1.20;;
30233;SDS011;17046;52.074;4.748;2023-04-03T16:21:07;5.70;;;1.20;;
30233;SDS011;17046;52.074;4.748;2023-04-03T16:23:33;2.60;;;1.30;;
30233;SDS011;17046;52.074;4.748;2023-04-03T16:25:59;2.50;;;1.23;;